Palou 2 — FAA5132 — position and weather

sailwx.info

Track history (hours):
 
Tides and Currents Weather Stations Pressure Air Temp Water Temp Dewpoint Dewpoint Depression Visibility Wind Speed Wind Dir Waves Ship Positions

Palou 2

Last reported at 2018-May-22 14:51 UTC. Time now 2018-May-22 18:00 UTC.
Position N 47°35' W 003°01'.

Length 12 m.

Type: Sailing vessel. MMSI: 227129920.

Date/timePositionNaut miles runAvg speedWind from/ knotsBaromVisibWave heightAir tempDewpointWater temp
2018-May-22 14:51N 47°35' W 003°01'  
2018-May-13 10:51N 47°35' W 003°01'0 0.0
2018-May-13 10:30N 47°35' W 003°01'0 0.4
2018-May-13 10:00N 47°35' W 003°02'1 2.9
2018-May-13 09:30N 47°34' W 003°01'2 4.2
2018-May-13 09:00N 47°32' W 003°00'2 4.9
2018-May-13 08:30N 47°30' W 002°60'2 5.1
2018-May-13 08:01N 47°31' W 002°56'4 6.9
2018-May-13 07:30N 47°34' W 002°54'3 5.8
2018-May-13 07:00N 47°36' W 002°51'0 0.0
2018-May-12 15:24N 47°36' W 002°51'0 0.0
2018-May-12 15:00N 47°36' W 002°51'  
Track history (hours):
 
Tides and Currents Weather Stations Pressure Air Temp Water Temp Dewpoint Dewpoint Depression Visibility Wind Speed Wind Dir Waves Ship Positions

Palou 2

Last reported at 2018-May-22 14:51 UTC. Time now 2018-May-22 18:00 UTC.
Position N 47°35' W 003°01'.

Length 12 m.

Type: Sailing vessel. MMSI: 227129920.

Date/timePositionNaut miles runAvg speedWind from/ knotsBaromVisibWave heightAir tempDewpointWater temp
2018-May-22 14:51N 47°35' W 003°01'  
2018-May-13 10:51N 47°35' W 003°01'0 0.0
2018-May-13 10:30N 47°35' W 003°01'0 0.4
2018-May-13 10:00N 47°35' W 003°02'1 2.9
2018-May-13 09:30N 47°34' W 003°01'2 4.2
2018-May-13 09:00N 47°32' W 003°00'2 4.9
2018-May-13 08:30N 47°30' W 002°60'2 5.1
2018-May-13 08:01N 47°31' W 002°56'4 6.9
2018-May-13 07:30N 47°34' W 002°54'3 5.8
2018-May-13 07:00N 47°36' W 002°51'0 0.0
2018-May-12 15:24N 47°36' W 002°51'0 0.0
2018-May-12 15:00N 47°36' W 002°51'  

Dump ship's entire track history